Arlington, Nebraska
Current Conditions -  °F | °C
As of 7:15 AM on Monday 22 Dec 2014 (Local Time) from KFET Reporting Station
Drizzle Drizzle  
Wind Chill: 38°   Ceiling: 600
Heat Index: 43°   Visibility: 3mi
Dew Point: 42°   Wind: 8mph
Humidity: 97%   Direction: 140°SE
Pressure: 29.51"   Gusts: NA
Location:  41.45°N, 96.35°W
Report Text: KFET 221315Z AUTO 14007KT 3SM DZ OVC006 06/06 A2951 RMK AO2 T00600055
Loading
Personal Weather Stations






























Interactive Weather Map New forecast layout! Learn more

10-Day Weather Forecast

Advertisements
Track Severe Weather on mobile